Time;durP1;ratioP1;P1;durP2;ratioP2;P2;SDS_P1;SDS_P2;PMS_P1;PMS_P2;Temp;Humidity;BMP_temperature;BMP_pressure;BME280_temperature;BME280_humidity;BME280_pressure;Samples;Min_cycle;Max_cycle;Signal;HPM_P1;HPM_P2
2022/05/14 00:00:49;;;;;;;23.38;5.85;;;;;;;10.90;73.27;101889.88;5102296;27;20040;-78
2022/05/14 00:03:16;;;;;;;17.55;5.22;;;;;;;10.86;73.51;101890.13;5092983;28;20096;-78
2022/05/14 00:05:42;;;;;;;19.25;6.10;;;;;;;10.86;73.16;101892.81;5096459;28;20064;-78
2022/05/14 00:08:08;;;;;;;19.55;5.45;;;;;;;10.81;73.30;101888.56;5098572;28;20024;-78
2022/05/14 00:13:03;;;;;;;20.00;5.55;;;;;;;10.82;73.45;101890.31;5107392;28;20119;-78
2022/05/14 00:13:21;;;;;;;13.95;4.63;;;;;;;10.82;73.39;101893.00;5111428;28;20089;-78
2022/05/14 00:15:46;;;;;;;19.50;5.20;;;;;;;10.79;73.49;101885.13;5113564;28;20058;-78
2022/05/14 00:18:12;;;;;;;17.48;4.95;;;;;;;10.77;73.64;101881.63;5088453;27;20074;-78
2022/05/14 00:20:38;;;;;;;17.50;5.40;;;;;;;10.75;73.46;101888.94;5092944;28;20038;-79
2022/05/14 00:23:04;;;;;;;19.27;5.18;;;;;;;10.72;73.95;101883.75;5092826;28;20024;-79
2022/05/14 00:25:30;;;;;;;18.05;5.70;;;;;;;10.70;73.50;101888.31;5094106;28;20076;-79
2022/05/14 00:27:55;;;;;;;16.23;5.55;;;;;;;10.69;74.05;101883.03;5100587;28;20031;-79
2022/05/14 00:30:23;;;;;;;20.30;6.00;;;;;;;10.68;74.32;101881.31;5079676;28;20063;-79
2022/05/14 00:32:50;;;;;;;19.90;5.80;;;;;;;10.63;74.01;101882.44;5100327;28;20058;-78
2022/05/14 00:35:15;;;;;;;19.70;6.10;;;;;;;10.63;74.48;101870.81;5111748;28;20058;-78
2022/05/14 00:37:41;;;;;;;16.70;6.03;;;;;;;10.61;74.50;101867.34;5077989;28;20032;-78
2022/05/14 00:40:11;;;;;;;20.45;5.78;;;;;;;10.59;74.78;101869.28;5088424;28;20351;-78
2022/05/14 00:42:36;;;;;;;17.10;5.25;;;;;;;10.59;73.77;101863.88;5113293;28;20032;-78
2022/05/14 00:45:03;;;;;;;20.65;6.47;;;;;;;10.58;74.28;101875.59;5109056;28;20042;-78
2022/05/14 00:47:34;;;;;;;17.38;5.63;;;;;;;10.54;74.78;101872.22;5103610;27;20032;-78
2022/05/14 00:49:59;;;;;;;16.73;5.47;;;;;;;10.53;74.86;101877.66;5086857;28;20489;-78
2022/05/14 00:52:24;;;;;;;19.58;5.70;;;;;;;10.45;74.85;101868.22;5092655;28;20032;-78
2022/05/14 00:55:03;;;;;;;21.42;6.03;;;;;;;10.40;74.88;101872.13;5083031;28;20061;-78
2022/05/14 00:57:34;;;;;;;23.67;6.25;;;;;;;10.30;74.62;101869.03;5096060;28;20040;-78
2022/05/14 01:00:09;;;;;;;19.92;5.78;;;;;;;10.27;75.17;101879.97;5084159;27;20022;-78
2022/05/14 01:02:35;;;;;;;18.17;5.97;;;;;;;10.23;75.49;101876.56;5107561;27;20024;-78
2022/05/14 01:05:01;;;;;;;22.00;6.47;;;;;;;10.20;75.46;101874.06;5084606;28;20081;-78
2022/05/14 01:07:28;;;;;;;20.25;6.18;;;;;;;10.17;75.65;101871.53;5077580;28;20483;-79
2022/05/14 01:09:59;;;;;;;18.45;5.63;;;;;;;10.17;75.73;101876.91;5098192;28;20028;-79
2022/05/14 01:12:26;;;;;;;21.20;6.22;;;;;;;10.12;75.58;101871.81;5110096;28;20119;-79
2022/05/14 01:14:52;;;;;;;17.80;5.43;;;;;;;10.09;75.36;101869.28;5108209;28;20123;-79
2022/05/14 01:17:17;;;;;;;18.02;5.03;;;;;;;10.08;75.19;101870.22;5103384;28;20054;-79
2022/05/14 01:19:43;;;;;;;17.90;5.30;;;;;;;10.05;75.28;101875.78;5099551;28;20032;-78
2022/05/14 01:22:33;;;;;;;20.67;5.88;;;;;;;10.07;74.63;101873.00;5103054;28;20443;-78
2022/05/14 01:27:51;;;;;;;24.38;5.88;;;;;;;10.00;74.98;101864.44;5093120;28;20117;-79
2022/05/14 01:30:17;;;;;;;21.08;5.57;;;;;;;9.97;75.24;101868.16;5101867;28;20032;-79
2022/05/14 01:32:45;;;;;;;20.73;5.78;;;;;;;9.96;75.30;101865.53;5089552;28;20088;-79
2022/05/14 01:35:15;;;;;;;17.30;5.07;;;;;;;9.96;75.34;101868.22;5091004;28;20391;-79
2022/05/14 01:37:40;;;;;;;18.80;5.25;;;;;;;9.94;75.08;101875.47;5097767;28;20024;-79
2022/05/14 01:40:06;;;;;;;17.60;5.00;;;;;;;9.98;74.61;101877.06;5096313;28;20397;-79
2022/05/14 01:42:32;;;;;;;15.55;4.90;;;;;;;9.93;74.74;101871.09;5103539;28;20431;-78
2022/05/14 01:44:57;;;;;;;15.45;5.10;;;;;;;9.96;74.26;101870.91;5090199;28;20107;-78
2022/05/14 01:47:23;;;;;;;18.00;5.25;;;;;;;9.91;74.68;101870.28;5075247;28;20028;-78
2022/05/14 01:49:48;;;;;;;12.18;4.38;;;;;;;9.88;74.22;101871.34;5114689;27;20432;-78
2022/05/14 01:52:13;;;;;;;15.02;4.47;;;;;;;9.86;73.99;101870.53;5088888;28;20023;-78
2022/05/14 01:54:39;;;;;;;14.88;4.65;;;;;;;9.87;74.18;101879.44;5091990;28;20421;-79
2022/05/14 01:57:05;;;;;;;14.95;4.45;;;;;;;9.86;73.69;101880.41;5080751;28;20027;-79
2022/05/14 01:59:30;;;;;;;15.85;4.72;;;;;;;9.83;73.90;101880.59;5107404;28;20130;-78
2022/05/14 02:01:55;;;;;;;17.98;3.70;;;;;;;9.80;74.04;101879.78;5100323;27;20031;-78
2022/05/14 02:04:20;;;;;;;16.52;4.32;;;;;;;9.77;73.72;101879.94;5080256;28;20024;-78
2022/05/14 02:06:46;;;;;;;18.42;4.68;;;;;;;9.76;73.86;101872.84;5093040;28;20032;-78
2022/05/14 02:09:13;;;;;;;16.42;4.50;;;;;;;9.75;73.43;101873.81;5094717;28;20506;-78
2022/05/14 02:11:40;;;;;;;17.77;4.75;;;;;;;9.73;73.51;101883.75;5097551;28;20027;-78
2022/05/14 02:14:07;;;;;;;14.20;4.10;;;;;;;9.67;73.63;101880.53;5088539;28;20035;-78
2022/05/14 02:16:33;;;;;;;18.92;4.72;;;;;;;9.67;73.90;101880.53;5079817;28;20051;-78
2022/05/14 02:18:58;;;;;;;20.10;5.07;;;;;;;9.63;73.89;101879.81;5085210;28;20391;-78
2022/05/14 02:21:24;;;;;;;23.95;4.57;;;;;;;9.60;74.26;101878.19;5091082;28;20055;-78
2022/05/14 02:23:51;;;;;;;13.85;4.40;;;;;;;9.61;74.19;101876.34;5104312;28;20024;-78
2022/05/14 02:26:17;;;;;;;14.73;4.53;;;;;;;9.58;74.17;101880.06;5090743;28;20337;-78
2022/05/14 02:28:43;;;;;;;17.25;4.57;;;;;;;9.55;74.48;101882.91;5083333;28;20027;-78
2022/05/14 02:31:09;;;;;;;14.35;4.20;;;;;;;9.50;74.40;101881.41;5082896;28;20032;-78
2022/05/14 02:33:36;;;;;;;14.60;4.20;;;;;;;9.42;74.68;101884.50;5094991;28;20099;-78
2022/05/14 02:36:03;;;;;;;11.88;3.90;;;;;;;9.37;74.27;101887.44;5075156;28;20055;-78
2022/05/14 02:38:30;;;;;;;14.75;4.13;;;;;;;9.29;74.51;101883.41;5087572;28;20411;-78
2022/05/14 02:40:55;;;;;;;16.15;4.65;;;;;;;9.23;75.10;101880.06;5108419;28;20042;-78
2022/05/14 02:43:20;;;;;;;14.73;4.03;;;;;;;9.21;75.09;101881.97;5084286;28;20019;-78
2022/05/14 02:45:46;;;;;;;14.25;4.80;;;;;;;9.23;75.04;101881.91;5106136;28;20024;-78
2022/05/14 02:48:12;;;;;;;16.55;4.20;;;;;;;9.22;75.06;101880.16;5095559;27;20023;-78
2022/05/14 02:50:38;;;;;;;14.35;4.38;;;;;;;9.24;74.86;101892.53;5084484;28;20604;-78
2022/05/14 02:53:04;;;;;;;18.33;4.80;;;;;;;9.26;75.27;101892.47;5077111;28;20031;-78
2022/05/14 02:55:30;;;;;;;14.95;4.00;;;;;;;9.24;75.05;101886.31;5104041;28;20032;-78
2022/05/14 02:57:55;;;;;;;20.20;5.38;;;;;;;9.25;74.87;101883.56;5092225;28;20027;-78
2022/05/14 03:00:21;;;;;;;21.42;5.38;;;;;;;9.22;75.07;101889.09;5075542;28;20154;-78
2022/05/14 03:02:47;;;;;;;15.13;4.20;;;;;;;9.21;75.30;101891.81;5089354;28;20031;-78
2022/05/14 03:05:14;;;;;;;17.17;4.68;;;;;;;9.15;75.29;101893.03;5073475;28;20503;-78
2022/05/14 03:07:40;;;;;;;14.25;4.50;;;;;;;9.16;74.92;101888.50;5073743;28;20442;-78
2022/05/14 03:10:06;;;;;;;18.88;4.50;;;;;;;9.16;75.14;101889.38;5104787;28;20024;-78
2022/05/14 03:12:32;;;;;;;14.23;4.25;;;;;;;9.16;75.20;101885.84;5106040;28;20494;-78
2022/05/14 03:14:57;;;;;;;22.60;4.72;;;;;;;9.20;75.18;101890.09;5101562;28;20055;-78
2022/05/14 03:17:23;;;;;;;16.85;4.18;;;;;;;9.16;74.94;101885.84;5103888;28;20413;-78
2022/05/14 03:19:49;;;;;;;17.65;4.18;;;;;;;9.15;74.98;101884.97;5092263;28;20039;-78
2022/05/14 03:22:15;;;;;;;15.40;4.45;;;;;;;9.08;75.14;101880.88;5108885;28;20060;-78
2022/05/14 03:24:41;;;;;;;12.85;3.97;;;;;;;9.04;75.32;101882.81;5108032;28;20469;-78
2022/05/14 03:27:07;;;;;;;16.45;4.55;;;;;;;8.97;75.69;101884.06;5094568;28;20024;-78
2022/05/14 03:29:34;;;;;;;18.05;4.43;;;;;;;9.00;75.89;101883.06;5096213;28;20032;-78
2022/05/14 03:32:00;;;;;;;15.75;4.47;;;;;;;8.96;75.34;101887.72;5113690;28;20047;-78
2022/05/14 03:34:26;;;;;;;14.40;4.47;;;;;;;8.93;75.57;101882.47;5109156;28;20027;-78
2022/05/14 03:36:52;;;;;;;16.20;4.70;;;;;;;8.91;75.83;101887.06;5086888;28;20054;-78
2022/05/14 03:39:17;;;;;;;12.98;3.80;;;;;;;8.94;76.01;101888.72;5103913;28;20112;-78
2022/05/14 03:41:43;;;;;;;16.80;4.57;;;;;;;8.93;75.80;101882.47;5083622;28;20394;-78
2022/05/14 03:44:10;;;;;;;15.55;4.38;;;;;;;8.94;75.95;101884.22;5104217;28;20092;-78
2022/05/14 03:46:35;;;;;;;17.05;4.47;;;;;;;8.94;75.78;101878.84;5093333;28;20182;-78
2022/05/14 03:49:00;;;;;;;16.60;4.50;;;;;;;8.90;76.07;101879.94;5105479;27;20028;-78
2022/05/14 03:51:28;;;;;;;14.75;4.07;;;;;;;8.91;75.98;101877.19;5108401;28;20112;-78
2022/05/14 03:53:53;;;;;;;14.07;4.88;;;;;;;8.91;76.03;101885.25;5099735;28;20119;-78
2022/05/14 03:56:18;;;;;;;17.52;4.30;;;;;;;8.88;75.77;101888.06;5106892;28;20043;-78
2022/05/14 03:58:44;;;;;;;15.20;4.57;;;;;;;8.86;75.97;101884.63;5113960;28;20050;-78
2022/05/14 04:01:09;;;;;;;14.63;4.63;;;;;;;8.83;76.24;101884.78;5105124;27;21185;-78
2022/05/14 04:03:35;;;;;;;14.43;4.22;;;;;;;8.83;76.21;101881.19;5089005;28;20032;-78
2022/05/14 04:06:02;;;;;;;15.63;4.55;;;;;;;8.80;76.57;101884.91;5099969;28;20054;-78
2022/05/14 04:08:27;;;;;;;16.40;4.70;;;;;;;8.82;76.72;101884.84;5074269;28;20028;-78
2022/05/14 04:10:53;;;;;;;18.58;4.78;;;;;;;8.82;76.56;101890.22;5082485;28;20031;-78
2022/05/14 04:13:18;;;;;;;18.98;4.22;;;;;;;8.84;76.23;101890.97;5111375;28;20055;-78
2022/05/14 04:15:43;;;;;;;18.80;4.40;;;;;;;8.84;76.46;101896.34;5110631;28;20473;-78
2022/05/14 04:18:09;;;;;;;17.02;4.68;;;;;;;8.81;76.82;101888.47;5087363;27;20051;-78
2022/05/14 04:20:35;;;;;;;15.88;4.40;;;;;;;8.81;76.76;101893.81;5098689;28;20034;-78
2022/05/14 04:23:01;;;;;;;15.75;4.72;;;;;;;8.80;76.80;101903.69;5092995;28;20028;-78
2022/05/14 04:25:27;;;;;;;12.27;4.22;;;;;;;8.79;76.74;101895.72;5084306;28;20115;-78
2022/05/14 04:27:53;;;;;;;15.52;5.13;;;;;;;8.78;77.03;101889.47;5079180;28;20106;-78
2022/05/14 04:30:18;;;;;;;14.27;4.63;;;;;;;8.79;77.24;101895.72;5110685;28;20055;-78
2022/05/14 04:32:43;;;;;;;16.40;4.63;;;;;;;8.79;77.21;101893.91;5100063;28;20328;-78
2022/05/14 04:35:11;;;;;;;18.80;5.82;;;;;;;8.81;77.38;101899.19;5102534;28;20061;-78
2022/05/14 04:37:36;;;;;;;17.25;4.85;;;;;;;8.84;77.44;101893.66;5110283;28;20498;-78
2022/05/14 04:40:06;;;;;;;15.95;4.93;;;;;;;8.86;77.60;101899.84;5093591;28;20023;-78
2022/05/14 04:42:31;;;;;;;12.35;4.35;;;;;;;8.92;77.34;101899.53;5092495;28;20035;-78
2022/05/14 04:44:56;;;;;;;19.88;5.38;;;;;;;8.95;77.29;101899.38;5098284;28;20069;-78
2022/05/14 04:47:21;;;;;;;20.35;4.93;;;;;;;8.99;77.88;101900.06;5080543;28;20028;-78
2022/05/14 04:49:48;;;;;;;15.50;4.85;;;;;;;8.99;77.59;101900.97;5106759;28;20055;-78
2022/05/14 04:52:14;;;;;;;19.30;5.63;;;;;;;9.01;77.64;101907.09;5090461;28;20548;-78
2022/05/14 04:54:39;;;;;;;17.65;5.10;;;;;;;9.02;77.52;101911.53;5081362;28;20029;-78
2022/05/14 04:57:06;;;;;;;14.02;4.47;;;;;;;9.08;77.65;101918.41;5103326;28;20028;-78
2022/05/14 04:59:32;;;;;;;21.38;5.97;;;;;;;9.10;77.94;101906.63;5093563;28;20122;-78
2022/05/14 05:04:43;;;;;;;20.60;5.38;;;;;;;9.21;78.01;101907.91;5092059;27;20118;-78
2022/05/14 05:07:09;;;;;;;14.13;4.60;;;;;;;9.27;77.75;101903.13;5101092;28;20420;-78
2022/05/14 05:09:34;;;;;;;18.00;5.32;;;;;;;9.32;77.81;101915.44;5087008;28;20028;-78
2022/05/14 05:12:00;;;;;;;18.55;5.28;;;;;;;9.38;77.53;101921.34;5106933;28;20433;-78
2022/05/14 05:14:26;;;;;;;20.70;6.03;;;;;;;9.43;77.31;101919.28;5093432;28;20116;-78
2022/05/14 05:16:51;;;;;;;22.92;5.93;;;;;;;9.49;77.61;101911.84;5079850;28;20047;-78
2022/05/14 05:19:18;;;;;;;22.67;7.00;;;;;;;9.56;77.90;101913.28;5120123;27;20079;-78
2022/05/14 05:21:43;;;;;;;16.10;5.22;;;;;;;9.60;77.93;101914.88;5091137;28;20027;-78
2022/05/14 05:24:09;;;;;;;24.98;6.15;;;;;;;9.67;77.78;101916.28;5078190;28;20130;-78
2022/05/14 05:26:35;;;;;;;16.67;5.45;;;;;;;9.72;78.20;101924.09;5076353;28;20077;-78
2022/05/14 05:29:01;;;;;;;15.55;5.47;;;;;;;9.77;77.69;101928.28;5099253;28;20051;-78
2022/05/14 05:31:27;;;;;;;19.98;6.20;;;;;;;9.83;77.85;101928.91;5082861;28;20032;-78
2022/05/14 05:33:52;;;;;;;20.38;6.40;;;;;;;9.88;77.77;101929.53;5083594;28;20024;-78
2022/05/14 05:36:17;;;;;;;17.98;5.80;;;;;;;9.93;78.07;101936.38;5098806;28;20024;-78
2022/05/14 05:38:43;;;;;;;20.98;6.30;;;;;;;10.00;78.21;101939.63;5081620;28;20091;-78
2022/05/14 05:41:08;;;;;;;22.95;7.00;;;;;;;10.05;78.21;101934.84;5078795;28;20050;-78
2022/05/14 05:43:33;;;;;;;24.05;7.05;;;;;;;10.12;77.98;101940.78;5102556;28;20482;-78
2022/05/14 05:45:59;;;;;;;19.98;6.72;;;;;;;10.19;77.90;101938.63;5078265;28;20038;-78
2022/05/14 05:48:24;;;;;;;20.67;7.20;;;;;;;10.24;77.96;101950.84;5088876;28;20027;-78
2022/05/14 05:50:49;;;;;;;23.48;7.00;;;;;;;10.29;77.91;101940.75;5089077;28;20036;-78
2022/05/14 05:53:16;;;;;;;21.15;7.28;;;;;;;10.38;78.02;101939.41;5102051;28;20036;-78
2022/05/14 05:58:26;;;;;;;20.52;7.57;;;;;;;10.51;78.09;101944.09;5108418;27;20042;-79
2022/05/14 06:00:51;;;;;;;25.58;7.85;;;;;;;10.57;77.93;101935.66;5082719;28;20023;-78
2022/05/14 06:03:17;;;;;;;22.75;8.25;;;;;;;10.64;78.42;101939.75;5104764;27;20452;-78
2022/05/14 06:05:43;;;;;;;26.85;8.35;;;;;;;10.71;77.97;101951.91;5094072;27;20058;-78
2022/05/14 06:08:15;;;;;;;24.27;8.40;;;;;;;10.79;77.98;101944.28;5084239;28;20050;-78
2022/05/14 06:10:41;;;;;;;22.00;8.60;;;;;;;10.87;77.74;101946.53;5076895;28;20032;-78
2022/05/14 06:13:08;;;;;;;22.60;8.65;;;;;;;10.95;78.11;101943.38;5097271;28;20460;-79
2022/05/14 06:15:34;;;;;;;22.95;8.35;;;;;;;11.02;78.79;101951.03;5095079;28;20077;-78
2022/05/14 06:18:04;;;;;;;25.98;8.73;;;;;;;11.11;78.15;101941.56;5095680;28;20047;-79
2022/05/14 06:20:30;;;;;;;24.75;9.20;;;;;;;11.19;78.35;101950.03;5093924;28;20483;-78
2022/05/14 06:22:55;;;;;;;25.10;8.52;;;;;;;11.26;78.62;101953.25;5095813;28;20027;-78
2022/05/14 06:25:21;;;;;;;26.40;9.43;;;;;;;11.32;78.34;101954.72;5101162;28;20046;-78
2022/05/14 06:27:46;;;;;;;24.42;8.88;;;;;;;11.39;77.89;101948.03;5077993;28;20486;-78
2022/05/14 06:30:11;;;;;;;23.00;8.70;;;;;;;11.45;77.51;101952.16;5101055;28;20130;-78
2022/05/14 06:32:37;;;;;;;26.42;10.07;;;;;;;11.52;78.54;101961.59;5106589;28;20168;-79
2022/05/14 06:35:04;;;;;;;26.35;10.57;;;;;;;11.58;77.65;101963.06;5094323;28;20036;-78
2022/05/14 06:37:29;;;;;;;27.58;10.05;;;;;;;11.65;77.99;101972.50;5094950;28;20024;-79
2022/05/14 06:39:55;;;;;;;26.38;9.30;;;;;;;11.70;77.88;101973.13;5087764;28;20168;-79
2022/05/14 06:42:20;;;;;;;27.30;9.73;;;;;;;11.76;77.55;101977.22;5094624;28;20123;-78
2022/05/14 06:44:45;;;;;;;23.23;10.10;;;;;;;11.81;77.61;101973.31;5103915;28;20027;-78
2022/05/14 06:47:11;;;;;;;26.52;11.50;;;;;;;11.89;78.01;101972.88;5077320;28;20055;-79
2022/05/14 06:49:36;;;;;;;24.38;10.27;;;;;;;11.96;78.28;101973.38;5113073;28;20032;-79
2022/05/14 06:52:04;;;;;;;23.08;10.63;;;;;;;12.01;77.90;101982.06;5074224;28;20328;-79
2022/05/14 06:54:32;;;;;;;26.95;10.13;;;;;;;12.05;77.22;101989.00;5072890;28;20088;-79
2022/05/14 06:56:57;;;;;;;22.23;9.35;;;;;;;12.09;76.36;101974.34;5109783;28;20086;-79
2022/05/14 06:59:22;;;;;;;24.52;10.35;;;;;;;12.16;77.63;101978.41;5084984;28;20052;-79
2022/05/14 07:01:48;;;;;;;28.15;10.20;;;;;;;12.26;77.61;101967.06;5082153;28;20372;-78
2022/05/14 07:07:00;;;;;;;24.27;10.30;;;;;;;12.39;76.81;101976.13;5107039;28;20390;-78
2022/05/14 07:09:28;;;;;;;22.23;10.27;;;;;;;12.45;76.49;101975.72;5102078;28;20020;-78
2022/05/14 07:11:59;;;;;;;29.60;11.90;;;;;;;12.46;76.63;101981.97;5091854;28;20343;-79
2022/05/14 07:14:26;;;;;;;26.67;11.25;;;;;;;12.54;77.18;101979.66;5108181;27;20043;-78
2022/05/14 07:16:53;;;;;;;21.95;9.20;;;;;;;12.63;75.84;101972.81;5079391;28;20127;-77
2022/05/14 07:19:19;;;;;;;23.73;10.18;;;;;;;12.72;76.96;101978.50;5116954;27;20059;-79
2022/05/14 07:21:46;;;;;;;26.30;11.65;;;;;;;12.78;76.30;101982.59;5116776;27;20019;-78
2022/05/14 07:24:30;;;;;;;26.33;11.40;;;;;;;12.87;76.10;101983.84;5094136;28;20031;-79
2022/05/14 07:26:58;;;;;;;26.65;11.77;;;;;;;12.97;77.08;101986.81;5087369;28;20517;-79
2022/05/14 07:29:25;;;;;;;30.10;12.13;;;;;;;13.07;76.72;101979.84;5091914;28;20024;-78
2022/05/14 07:31:52;;;;;;;29.42;11.63;;;;;;;13.14;76.66;101973.06;5082677;28;20378;-79
2022/05/14 07:34:18;;;;;;;26.20;11.48;;;;;;;13.22;75.67;101975.25;5076710;28;20535;-79
2022/05/14 07:36:52;;;;;;;27.40;11.88;;;;;;;13.27;75.10;101975.84;5108149;28;20123;-79
2022/05/14 07:39:19;;;;;;;29.77;12.13;;;;;;;13.36;76.13;101979.78;5096222;28;20058;-79
2022/05/14 07:41:50;;;;;;;27.42;11.00;;;;;;;13.40;74.53;101978.63;5114670;28;20034;-79
2022/05/14 07:44:19;;;;;;;26.00;11.95;;;;;;;13.49;76.97;101977.97;5114612;28;20028;-79
2022/05/14 07:46:47;;;;;;;27.27;11.40;;;;;;;13.59;76.38;101975.53;5096008;28;20026;-78
2022/05/14 07:49:14;;;;;;;27.02;11.48;;;;;;;13.65;74.89;101972.41;5109784;27;20049;-78
2022/05/14 07:51:40;;;;;;;27.30;11.60;;;;;;;13.69;73.69;101973.94;5108629;28;20051;-78
2022/05/14 07:54:05;;;;;;;25.35;11.32;;;;;;;13.73;73.76;101982.69;5088513;28;20020;-78
2022/05/14 07:56:32;;;;;;;26.60;11.45;;;;;;;13.82;74.11;101987.44;5091179;28;20483;-78
2022/05/14 07:58:58;;;;;;;25.77;11.23;;;;;;;13.84;73.21;101988.22;5087216;28;20099;-78
2022/05/14 08:01:23;;;;;;;26.90;11.63;;;;;;;13.92;73.58;101979.56;5080830;27;20581;-78
2022/05/14 08:03:48;;;;;;;26.00;11.10;;;;;;;13.94;72.79;101981.22;5103234;27;20461;-78
2022/05/14 08:06:15;;;;;;;32.15;11.80;;;;;;;13.99;73.44;101981.72;5113420;27;20653;-78
2022/05/14 08:08:41;;;;;;;25.08;11.27;;;;;;;14.07;73.84;101988.44;5104860;27;20027;-78
2022/05/14 08:11:06;;;;;;;26.83;11.70;;;;;;;14.15;73.49;101983.38;5113103;27;20031;-78
2022/05/14 08:13:34;;;;;;;28.45;11.10;;;;;;;14.20;72.27;101983.03;5106126;27;20031;-78
2022/05/14 08:16:00;;;;;;;28.08;11.55;;;;;;;14.21;71.62;101980.22;5088198;27;20518;-79
2022/05/14 08:18:25;;;;;;;32.75;11.82;;;;;;;14.29;72.43;101983.28;5108075;27;20048;-80
2022/05/14 08:20:51;;;;;;;27.25;11.48;;;;;;;14.38;74.14;101981.75;5091178;27;20043;-80
2022/05/14 08:26:02;;;;;;;27.17;12.27;;;;;;;14.51;71.80;101987.16;5108340;27;20155;-80
2022/05/14 08:28:28;;;;;;;26.02;11.23;;;;;;;14.54;70.44;101981.50;5089674;27;20075;-79
2022/05/14 08:30:54;;;;;;;25.75;11.20;;;;;;;14.57;70.08;101975.00;5109737;27;20042;-79
2022/05/14 08:33:20;;;;;;;24.02;10.10;;;;;;;14.63;70.90;101980.88;5111608;27;20072;-79
2022/05/14 08:35:46;;;;;;;27.23;11.00;;;;;;;14.71;71.76;101979.44;5104743;27;20052;-79
2022/05/14 08:38:15;;;;;;;23.45;9.98;;;;;;;14.75;70.60;101980.97;5104971;27;20039;-79
2022/05/14 08:40:45;;;;;;;27.52;11.13;;;;;;;14.85;70.94;101990.13;5109597;27;20534;-77
2022/05/14 08:43:17;;;;;;;29.67;11.35;;;;;;;14.89;69.87;101991.66;5104116;27;20437;-79
2022/05/14 08:45:43;;;;;;;26.92;11.80;;;;;;;14.94;69.12;101989.44;5109921;27;20455;-79
2022/05/14 08:48:21;;;;;;;28.23;10.15;;;;;;;15.01;69.60;101982.59;5107019;27;20035;-79
2022/05/14 08:50:55;;;;;;;29.63;12.02;;;;;;;15.09;68.61;101984.75;5108219;28;20034;-79
2022/05/14 08:53:24;;;;;;;25.98;9.95;;;;;;;15.14;69.18;101982.56;5095141;28;20035;-79
2022/05/14 08:56:07;;;;;;;;;;;;;;;15.16;69.34;101979.75;5094347;28;20505;-79
2022/05/14 08:59:23;;;;;;;32.17;12.20;;;;;;;15.27;69.01;101974.41;5097317;28;19908;-79
2022/05/14 09:01:49;;;;;;;25.35;11.65;;;;;;;15.43;69.53;101973.22;5045981;28;20132;-79
2022/05/14 09:04:17;;;;;;;26.20;11.85;;;;;;;15.49;69.08;101978.16;5022477;28;20487;-79
2022/05/14 09:06:44;;;;;;;27.50;11.20;;;;;;;15.55;67.86;101981.28;5021188;28;20086;-80
2022/05/14 09:09:10;;;;;;;28.48;12.07;;;;;;;15.55;67.58;101977.72;5042256;28;20484;-79
2022/05/14 09:11:58;;;;;;;29.38;11.65;;;;;;;15.57;67.99;101981.16;5031389;28;20074;-79
2022/05/14 09:14:30;;;;;;;28.02;11.70;;;;;;;15.64;67.95;101985.13;5046658;28;20036;-79
2022/05/14 09:17:04;;;;;;;23.70;10.48;;;;;;;15.69;67.84;101980.19;5041992;28;20041;-79
2022/05/14 09:19:36;;;;;;;28.25;11.32;;;;;;;15.70;67.33;101976.50;5041603;28;20037;-79
2022/05/14 09:22:28;;;;;;;26.63;10.32;;;;;;;15.70;67.13;101976.50;5035272;28;20171;-79
2022/05/14 09:24:56;;;;;;;27.70;10.48;;;;;;;15.77;66.55;101986.88;5028418;28;20055;-80
2022/05/14 09:27:30;;;;;;;27.20;10.55;;;;;;;15.78;66.03;101984.09;5028667;28;20025;-79
2022/05/14 09:30:02;;;;;;;27.92;10.60;;;;;;;15.81;66.25;101981.16;5035386;28;20996;-78
2022/05/14 09:32:38;;;;;;;32.65;11.13;;;;;;;15.89;67.28;101977.84;5023914;28;20267;-78
2022/05/14 09:35:17;;;;;;;27.80;10.05;;;;;;;15.97;65.77;101966.38;5058882;28;20783;-78
2022/05/14 09:37:42;;;;;;;26.70;9.83;;;;;;;16.15;69.24;101966.78;5105999;28;20086;-78
2022/05/14 09:40:12;;;;;;;23.90;9.57;;;;;;;16.26;67.35;101972.22;5111098;28;20051;-78
2022/05/14 09:42:43;;;;;;;25.15;9.32;;;;;;;16.35;64.92;101976.91;5111783;28;20540;-78
2022/05/14 09:45:27;;;;;;;23.25;8.32;;;;;;;16.39;64.74;101978.38;5100668;27;20034;-77
2022/05/14 09:47:52;;;;;;;24.98;9.00;;;;;;;16.37;63.54;101964.09;5131955;27;20038;-78
2022/05/14 09:50:22;;;;;;;21.85;9.30;;;;;;;16.39;63.36;101966.69;5132691;27;20019;-78
2022/05/14 09:53:03;;;;;;;21.88;8.40;;;;;;;16.39;64.23;101967.53;5131800;27;20035;-78
2022/05/14 09:55:50;;;;;;;24.55;8.20;;;;;;;16.43;63.08;101973.59;5111664;28;20388;-78
2022/05/14 09:58:28;;;;;;;22.52;9.15;;;;;;;16.52;62.67;101967.41;5112104;28;20027;-78
2022/05/14 10:01:07;;;;;;;27.58;9.65;;;;;;;16.59;63.00;101976.78;5093464;28;20030;-78
2022/05/14 10:03:52;;;;;;;27.95;10.27;;;;;;;16.59;61.43;101967.78;5093559;28;20488;-78
2022/05/14 10:06:21;;;;;;;24.90;9.18;;;;;;;16.68;61.78;101971.63;5111832;28;20019;-78
2022/05/14 10:09:14;;;;;;;22.42;9.07;;;;;;;16.77;63.55;101966.28;5111818;28;20019;-78
2022/05/14 10:11:44;;;;;;;25.95;10.32;;;;;;;16.88;60.63;101967.28;5098839;28;20038;-78
2022/05/14 10:14:27;;;;;;;26.85;9.77;;;;;;;17.01;61.20;101976.13;5110031;28;20027;-78
2022/05/14 10:17:45;;;;;;;27.77;8.85;;;;;;;17.03;59.26;101976.00;5077055;28;20052;-77
2022/05/14 10:20:38;;;;;;;32.58;10.02;;;;;;;16.99;60.59;101964.53;5089692;28;20093;-77
2022/05/14 10:29:14;;;;;;;22.42;7.68;;;;;;;17.21;57.27;101970.91;5107554;28;20117;-78
2022/05/14 10:31:52;;;;;;;25.10;8.27;;;;;;;17.21;57.04;101962.75;5079755;28;20028;-78
2022/05/14 10:34:23;;;;;;;19.95;7.18;;;;;;;17.25;55.32;101964.22;5076688;28;20031;-78
2022/05/14 10:36:57;;;;;;;22.88;8.23;;;;;;;17.29;54.66;101957.53;5088645;28;20375;-78
2022/05/14 10:39:38;;;;;;;21.98;7.50;;;;;;;17.39;56.22;101963.91;5079840;28;20088;-77
2022/05/14 10:42:15;;;;;;;24.02;8.10;;;;;;;17.43;53.94;101962.66;5086311;28;20478;-77
2022/05/14 10:44:51;;;;;;;26.25;7.90;;;;;;;17.51;56.03;101969.28;5092079;28;20024;-78
2022/05/14 10:47:19;;;;;;;22.90;7.07;;;;;;;17.60;56.02;101966.66;5086098;28;20024;-77
2022/05/14 10:49:54;;;;;;;22.35;7.25;;;;;;;17.72;56.70;101972.91;5117142;28;20135;-82
2022/05/14 10:52:19;;;;;;;25.45;7.57;;;;;;;17.82;55.49;101971.13;5105019;28;20039;-82
2022/05/14 10:54:46;;;;;;;21.05;7.05;;;;;;;17.95;56.22;101961.91;5088873;28;20032;-82
2022/05/14 10:57:14;;;;;;;22.52;8.20;;;;;;;17.98;55.34;101969.84;5097107;28;20539;-86
2022/05/14 10:59:48;;;;;;;23.00;7.72;;;;;;;18.02;54.89;101973.97;5090351;28;20340;-84
2022/05/14 11:02:27;;;;;;;21.70;6.75;;;;;;;18.12;56.04;101974.06;5093621;28;20039;-84
2022/05/14 11:04:53;;;;;;;20.98;7.25;;;;;;;18.20;53.34;101970.66;5093474;28;20032;-85
2022/05/14 11:07:42;;;;;;;25.70;9.27;;;;;;;18.20;53.67;101966.09;5086054;28;20016;-85
2022/05/14 11:10:34;;;;;;;22.40;8.02;;;;;;;18.29;55.57;101964.41;5108866;28;20027;-86
2022/05/14 11:13:25;;;;;;;19.52;7.43;;;;;;;18.39;54.71;101965.31;5073095;28;20068;-87
2022/05/14 11:16:13;;;;;;;24.60;8.40;;;;;;;18.41;53.36;101959.72;5089538;28;20101;-86
2022/05/14 11:18:48;;;;;;;22.25;7.78;;;;;;;18.39;55.31;101968.03;5072764;28;20066;-82
2022/05/14 11:21:14;;;;;;;20.92;7.43;;;;;;;18.44;55.48;101962.19;5087640;28;20463;-84
2022/05/14 11:23:50;;;;;;;22.35;8.88;;;;;;;18.47;55.06;101965.47;5086281;28;20165;-83
2022/05/14 11:26:17;;;;;;;20.10;7.93;;;;;;;18.54;56.05;101971.25;5070807;28;20031;-86
2022/05/14 11:28:44;;;;;;;22.83;8.20;;;;;;;18.48;55.29;101969.94;5070989;28;20024;-78
2022/05/14 11:31:19;;;;;;;22.25;8.60;;;;;;;18.47;54.40;101960.03;5058078;28;20115;-77
2022/05/14 11:33:46;;;;;;;22.65;9.35;;;;;;;18.54;53.52;101957.63;5065733;28;20021;-77
2022/05/14 11:36:11;;;;;;;23.95;8.70;;;;;;;18.62;53.83;101965.94;5065545;28;20443;-76
2022/05/14 11:38:43;;;;;;;24.77;9.07;;;;;;;18.72;52.70;101971.44;5050590;28;20036;-78
2022/05/14 11:41:11;;;;;;;23.15;9.80;;;;;;;18.76;50.05;101972.91;5065790;28;20310;-79
2022/05/14 11:43:41;;;;;;;22.70;10.02;;;;;;;18.79;52.55;101963.59;5050427;28;20082;-78
2022/05/14 11:46:09;;;;;;;;;;;;;;;18.79;54.02;101956.28;5066263;28;20099;-78